createdAt,value
2023-05-25T00:00:28.949Z,10.20
2023-05-25T00:03:32.349Z,10.50
2023-05-25T00:06:37.477Z,10.40
2023-05-25T00:09:39.178Z,10.60
2023-05-25T00:12:40.797Z,10.60
2023-05-25T00:15:42.543Z,10.60
2023-05-25T00:18:44.425Z,10.50
2023-05-25T00:21:48.307Z,10.30
2023-05-25T00:24:50.010Z,10.60
2023-05-25T00:27:51.627Z,10.90
2023-05-25T00:30:53.299Z,10.10
2023-05-25T00:33:55.231Z,10.60
2023-05-25T00:36:56.852Z,10.00
2023-05-25T00:39:58.499Z,10.50
2023-05-25T00:43:00.457Z,10.10
2023-05-25T00:46:03.142Z,10.10
2023-05-25T00:49:05.323Z,10.50
2023-05-25T00:52:07.118Z,10.30
2023-05-25T00:55:11.610Z,10.20
2023-05-25T00:58:15.337Z,10.20
2023-05-25T01:01:18.547Z,9.80
2023-05-25T01:04:23.034Z,10.40
2023-05-25T01:07:26.951Z,10.30
2023-05-25T01:10:32.121Z,9.80
2023-05-25T01:13:35.136Z,10.00
2023-05-25T01:16:38.173Z,10.10
2023-05-25T01:19:41.243Z,9.90
2023-05-25T01:22:54.936Z,9.70
2023-05-25T01:25:59.624Z,9.70
2023-05-25T01:29:02.033Z,10.80
2023-05-25T01:32:04.671Z,10.00
2023-05-25T01:35:08.301Z,9.60
2023-05-25T01:38:10.059Z,9.90
2023-05-25T01:41:11.692Z,9.80
2023-05-25T01:44:13.359Z,9.90
2023-05-25T01:47:23.833Z,9.70
2023-05-25T01:50:38.977Z,9.90
2023-05-25T01:53:45.498Z,9.70
2023-05-25T01:56:49.476Z,9.90
2023-05-25T01:59:55.738Z,9.70
2023-05-25T02:02:58.279Z,9.70
2023-05-25T02:06:00.102Z,10.00
2023-05-25T02:09:01.755Z,10.90
2023-05-25T02:12:03.929Z,9.70
2023-05-25T02:15:06.206Z,9.50
2023-05-25T02:18:08.520Z,9.80
2023-05-25T02:21:10.665Z,9.50
2023-05-25T02:24:12.318Z,9.70
2023-05-25T02:27:14.468Z,10.40
2023-05-25T02:30:16.225Z,9.70
2023-05-25T02:33:18.776Z,10.20
2023-05-25T02:36:20.994Z,9.90
2023-05-25T02:39:22.859Z,10.00
2023-05-25T02:42:24.424Z,10.20
2023-05-25T02:45:26.311Z,10.30
2023-05-25T02:48:27.937Z,9.90
2023-05-25T02:51:29.895Z,9.70
2023-05-25T02:54:31.507Z,9.90
2023-05-25T02:57:33.164Z,10.40
2023-05-25T03:00:34.932Z,10.10
2023-05-25T03:03:37.110Z,10.00
2023-05-25T03:06:38.753Z,11.00
2023-05-25T03:09:40.350Z,10.40
2023-05-25T03:12:41.949Z,10.30
2023-05-25T03:15:43.753Z,9.90
2023-05-25T03:18:45.529Z,10.10
2023-05-25T03:21:47.533Z,10.20
2023-05-25T03:24:50.257Z,10.60
2023-05-25T03:27:53.697Z,9.80
2023-05-25T03:30:56.496Z,10.10
2023-05-25T03:33:58.187Z,10.20
2023-05-25T03:37:00.294Z,10.00
2023-05-25T03:40:03.339Z,9.90
2023-05-25T03:43:04.931Z,10.40
2023-05-25T03:46:06.622Z,10.30
2023-05-25T03:49:13.502Z,11.30
2023-05-25T03:52:15.178Z,10.30
2023-05-25T03:55:16.967Z,10.00
2023-05-25T03:58:18.733Z,10.20
2023-05-25T04:01:20.572Z,10.00
2023-05-25T04:04:22.491Z,10.10
2023-05-25T04:07:24.115Z,10.40
2023-05-25T04:10:25.916Z,9.80
2023-05-25T04:13:27.535Z,10.40
2023-05-25T04:16:29.816Z,10.00
2023-05-25T04:19:31.425Z,10.30
2023-05-25T04:22:33.524Z,10.00
2023-05-25T04:25:35.193Z,10.00
2023-05-25T04:28:42.684Z,10.10
2023-05-25T04:31:45.727Z,10.00
2023-05-25T04:34:48.238Z,9.60
2023-05-25T04:37:49.806Z,10.10
2023-05-25T04:40:53.848Z,10.00
2023-05-25T04:44:07.910Z,10.20
2023-05-25T04:47:12.097Z,10.40
2023-05-25T04:50:13.849Z,10.50
2023-05-25T04:53:15.697Z,10.10
2023-05-25T04:56:17.344Z,10.00
2023-05-25T04:59:19.200Z,10.40
2023-05-25T05:02:20.959Z,11.00
2023-05-25T05:05:22.784Z,10.40
2023-05-25T05:08:24.366Z,12.10
2023-05-25T05:11:26.090Z,10.90
2023-05-25T05:14:27.914Z,10.50
2023-05-25T05:17:30.655Z,10.50
2023-05-25T05:20:32.439Z,10.50
2023-05-25T05:23:34.697Z,10.40
2023-05-25T05:26:51.931Z,10.80
2023-05-25T05:29:58.454Z,10.80
2023-05-25T05:33:00.365Z,10.90
2023-05-25T05:36:03.024Z,10.50
2023-05-25T05:39:04.691Z,10.90
2023-05-25T05:42:08.016Z,10.70
2023-05-25T05:45:10.011Z,10.70
2023-05-25T05:48:11.610Z,11.00
2023-05-25T05:51:13.332Z,11.20
2023-05-25T05:54:14.918Z,11.00
2023-05-25T05:57:16.613Z,10.80
2023-05-25T06:00:18.650Z,10.80
2023-05-25T06:03:24.136Z,11.40
2023-05-25T06:06:26.069Z,10.80
2023-05-25T06:09:27.736Z,11.20
2023-05-25T06:12:29.348Z,11.40
2023-05-25T06:15:30.995Z,11.40
2023-05-25T06:18:32.572Z,11.20
2023-05-25T06:21:34.186Z,11.90
2023-05-25T06:24:35.942Z,12.10
2023-05-25T06:27:37.733Z,12.00
2023-05-25T06:30:39.412Z,12.10
2023-05-25T06:33:41.115Z,12.40
2023-05-25T06:36:42.749Z,11.90
2023-05-25T06:39:44.443Z,12.30
2023-05-25T06:42:46.047Z,12.40
2023-05-25T06:45:48.100Z,12.40
2023-05-25T06:48:49.995Z,12.40
2023-05-25T06:51:51.699Z,12.40
2023-05-25T06:54:53.387Z,12.50
2023-05-25T06:57:55.034Z,12.60
2023-05-25T07:00:56.689Z,12.40
2023-05-25T07:03:58.320Z,12.60
2023-05-25T07:07:00.294Z,12.50
2023-05-25T07:10:03.924Z,14.40
2023-05-25T07:13:05.537Z,12.90
2023-05-25T07:16:07.166Z,12.50
2023-05-25T07:19:08.836Z,12.90
2023-05-25T07:22:10.912Z,13.70
2023-05-25T07:25:12.500Z,13.60
2023-05-25T07:28:14.116Z,13.60
2023-05-25T07:31:16.209Z,14.00
2023-05-25T07:34:18.382Z,13.50
2023-05-25T07:37:19.946Z,13.50
2023-05-25T07:40:21.533Z,13.80
2023-05-25T07:43:23.165Z,13.80
2023-05-25T07:46:25.832Z,13.50
2023-05-25T07:49:27.584Z,13.80
2023-05-25T07:52:29.176Z,13.90
2023-05-25T07:55:30.852Z,15.10
2023-05-25T07:58:32.457Z,14.20
2023-05-25T08:01:34.074Z,14.20
2023-05-25T08:04:35.741Z,14.50
2023-05-25T08:07:38.583Z,14.20
2023-05-25T08:10:41.119Z,14.20
2023-05-25T08:13:43.341Z,14.30
2023-05-25T08:16:45.012Z,14.30
2023-05-25T08:19:46.604Z,15.90
2023-05-25T08:22:48.183Z,14.40
2023-05-25T08:25:49.803Z,14.40
2023-05-25T08:28:51.422Z,14.70
2023-05-25T08:31:53.053Z,14.20
2023-05-25T08:34:54.680Z,14.90
2023-05-25T08:37:56.269Z,14.80
2023-05-25T08:41:06.934Z,14.80
2023-05-25T08:44:08.847Z,14.70
2023-05-25T08:47:12.242Z,14.60
2023-05-25T08:50:15.184Z,15.00
2023-05-25T08:53:18.905Z,15.50
2023-05-25T08:56:21.482Z,15.10
2023-05-25T08:59:43.576Z,15.00
2023-05-25T09:03:02.910Z,16.70
2023-05-25T09:06:04.821Z,15.20
2023-05-25T09:09:07.451Z,15.90
2023-05-25T09:12:09.598Z,15.00
2023-05-25T09:15:12.287Z,15.00
2023-05-25T09:18:13.911Z,15.40
2023-05-25T09:21:15.490Z,15.10
2023-05-25T09:24:18.350Z,14.90
2023-05-25T09:27:23.081Z,15.00
2023-05-25T09:30:25.781Z,14.40
2023-05-25T09:33:27.480Z,14.70
2023-05-25T09:36:29.204Z,14.80
2023-05-25T09:39:31.033Z,14.80
2023-05-25T09:42:33.810Z,14.90
2023-05-25T09:45:38.557Z,14.90
2023-05-25T09:48:41.223Z,15.70
2023-05-25T09:51:42.888Z,15.90
2023-05-25T09:54:47.320Z,15.70
2023-05-25T09:57:54.743Z,16.10
2023-05-25T10:00:56.485Z,15.90
2023-05-25T10:04:04.187Z,17.60
2023-05-25T10:07:09.170Z,16.90
2023-05-25T10:10:15.233Z,16.00
2023-05-25T10:13:24.151Z,15.80
2023-05-25T10:16:27.876Z,16.70
2023-05-25T10:19:41.306Z,15.20
2023-05-25T10:23:00.849Z,15.40
2023-05-25T10:26:05.754Z,15.10
2023-05-25T10:29:08.977Z,15.30
2023-05-25T10:32:10.959Z,15.90
2023-05-25T10:35:13.880Z,15.50
2023-05-25T10:38:16.940Z,15.70
2023-05-25T10:41:20.566Z,15.70
2023-05-25T10:44:22.573Z,17.60
2023-05-25T10:47:24.873Z,17.00
2023-05-25T10:50:27.867Z,16.10
2023-05-25T10:53:29.519Z,17.80
2023-05-25T10:56:31.216Z,16.10
2023-05-25T10:59:32.805Z,15.90
2023-05-25T11:02:55.234Z,16.50
2023-05-25T11:05:56.877Z,16.10
2023-05-25T11:08:59.939Z,16.10
2023-05-25T11:12:03.934Z,16.00
2023-05-25T11:15:10.901Z,15.80
2023-05-25T11:18:15.186Z,15.90
2023-05-25T11:21:24.243Z,16.10
2023-05-25T11:24:25.926Z,16.30
2023-05-25T11:27:31.846Z,16.60
2023-05-25T11:30:33.753Z,16.50
2023-05-25T11:33:35.555Z,18.00
2023-05-25T11:36:37.523Z,18.50
2023-05-25T11:39:39.734Z,16.70
2023-05-25T11:42:42.498Z,16.70
2023-05-25T11:45:44.271Z,16.60
2023-05-25T11:48:53.235Z,16.10
2023-05-25T11:51:57.228Z,16.60
2023-05-25T11:54:59.157Z,16.80
2023-05-25T11:58:00.802Z,17.10
2023-05-25T12:01:21.440Z,18.30
2023-05-25T12:04:24.419Z,17.30
2023-05-25T12:07:27.298Z,17.00
2023-05-25T12:10:28.909Z,16.80
2023-05-25T12:13:31.684Z,16.50
2023-05-25T12:16:39.046Z,17.60
2023-05-25T12:19:40.876Z,17.00
2023-05-25T12:22:43.682Z,17.10
2023-05-25T12:25:51.041Z,17.40
2023-05-25T12:29:01.871Z,17.70
2023-05-25T12:32:04.506Z,18.10
2023-05-25T12:35:07.086Z,18.20
2023-05-25T12:38:12.026Z,18.30
2023-05-25T12:41:13.771Z,17.90
2023-05-25T12:44:18.359Z,18.30
2023-05-25T12:47:24.293Z,18.60
2023-05-25T12:50:25.902Z,19.20
2023-05-25T12:53:28.945Z,19.10
2023-05-25T12:56:31.345Z,18.70
2023-05-25T12:59:33.768Z,20.60
2023-05-25T13:02:35.364Z,19.20
2023-05-25T13:05:38.162Z,19.10
2023-05-25T13:08:40.088Z,19.50
2023-05-25T13:11:41.947Z,18.80
2023-05-25T13:14:43.545Z,20.50
2023-05-25T13:17:45.616Z,19.00
2023-05-25T13:20:50.004Z,19.20
2023-05-25T13:23:53.659Z,19.70
2023-05-25T13:26:55.281Z,19.30
2023-05-25T13:29:58.651Z,19.20
2023-05-25T13:33:00.318Z,18.90
2023-05-25T13:36:08.152Z,19.00
2023-05-25T13:39:13.258Z,19.40
2023-05-25T13:42:14.934Z,19.60
2023-05-25T13:45:16.546Z,20.80
2023-05-25T13:48:18.430Z,20.00
2023-05-25T13:51:20.227Z,20.20
2023-05-25T13:54:23.176Z,20.10
2023-05-25T13:57:24.784Z,19.80
2023-05-25T14:00:26.465Z,21.90
2023-05-25T14:03:28.176Z,20.60
2023-05-25T14:06:30.880Z,21.00
2023-05-25T14:09:32.627Z,21.60
2023-05-25T14:12:34.542Z,21.20
2023-05-25T14:15:36.320Z,20.50
2023-05-25T14:18:37.930Z,20.20
2023-05-25T14:21:39.527Z,23.30
2023-05-25T14:24:41.604Z,22.00
2023-05-25T14:27:43.280Z,21.20
2023-05-25T14:30:44.866Z,21.80
2023-05-25T14:33:46.576Z,21.30
2023-05-25T14:36:48.188Z,21.70
2023-05-25T14:39:50.845Z,21.60
2023-05-25T14:42:55.276Z,20.70
2023-05-25T14:45:57.047Z,20.80
2023-05-25T14:48:58.646Z,20.90
2023-05-25T14:52:00.269Z,21.50
2023-05-25T14:55:01.870Z,21.80
2023-05-25T14:58:03.553Z,22.30
2023-05-25T15:01:05.341Z,22.60
2023-05-25T15:04:08.458Z,22.40
2023-05-25T15:07:12.929Z,22.60
2023-05-25T15:10:14.747Z,22.70
2023-05-25T15:13:16.390Z,20.20
2023-05-25T15:16:18.532Z,19.70
2023-05-25T15:19:20.328Z,21.10
2023-05-25T15:22:21.898Z,19.70
2023-05-25T15:25:34.941Z,20.10
2023-05-25T15:28:37.927Z,19.30
2023-05-25T15:31:39.686Z,19.00
2023-05-25T15:34:41.320Z,19.30
2023-05-25T15:37:43.203Z,19.10
2023-05-25T15:40:44.830Z,21.00
2023-05-25T15:44:01.121Z,18.70
2023-05-25T15:47:02.901Z,19.00
2023-05-25T15:50:04.766Z,18.50
2023-05-25T15:53:06.845Z,18.50
2023-05-25T15:56:08.451Z,18.40
2023-05-25T15:59:12.066Z,18.60
2023-05-25T16:02:14.081Z,18.50
2023-05-25T16:05:15.780Z,18.70
2023-05-25T16:08:17.498Z,20.20
2023-05-25T16:11:19.328Z,19.00
2023-05-25T16:14:20.967Z,19.00
2023-05-25T16:17:22.666Z,18.30
2023-05-25T16:20:24.337Z,17.90
2023-05-25T16:23:26.005Z,18.20
2023-05-25T16:26:27.625Z,18.40
2023-05-25T16:29:29.463Z,18.10
2023-05-25T16:32:31.203Z,17.70
2023-05-25T16:35:32.862Z,19.60
2023-05-25T16:38:34.478Z,17.70
2023-05-25T16:41:36.067Z,17.90
2023-05-25T16:44:37.649Z,17.90
2023-05-25T16:47:39.276Z,18.00
2023-05-25T16:50:40.974Z,17.80
2023-05-25T16:53:43.424Z,19.30
2023-05-25T16:56:45.016Z,17.60
2023-05-25T16:59:46.982Z,18.20
2023-05-25T17:02:48.727Z,17.90
2023-05-25T17:05:52.350Z,18.40
2023-05-25T17:08:55.770Z,18.20
2023-05-25T17:12:01.614Z,19.90
2023-05-25T17:15:03.614Z,18.00
2023-05-25T17:18:05.518Z,18.00
2023-05-25T17:21:07.437Z,17.80
2023-05-25T17:24:09.268Z,17.90
2023-05-25T17:27:10.921Z,18.10
2023-05-25T17:30:13.024Z,18.60
2023-05-25T17:33:14.767Z,18.50
2023-05-25T17:36:16.353Z,19.60
2023-05-25T17:39:18.523Z,19.60
2023-05-25T17:42:20.116Z,17.90
2023-05-25T17:45:21.757Z,18.70
2023-05-25T17:48:23.321Z,18.20
2023-05-25T17:51:25.019Z,18.20
2023-05-25T17:54:27.346Z,20.50
2023-05-25T17:57:29.004Z,21.90
2023-05-25T18:00:30.941Z,20.90
2023-05-25T18:03:32.764Z,19.60
2023-05-25T18:06:34.587Z,20.20
2023-05-25T18:09:36.216Z,18.50
2023-05-25T18:12:37.814Z,18.00
2023-05-25T18:15:39.498Z,18.40
2023-05-25T18:18:41.140Z,19.70
2023-05-25T18:21:42.707Z,19.70
2023-05-25T18:24:44.302Z,17.10
2023-05-25T18:27:45.965Z,17.70
2023-05-25T18:30:47.614Z,18.20
2023-05-25T18:33:49.319Z,17.50
2023-05-25T18:36:50.929Z,18.70
2023-05-25T18:39:52.966Z,18.50
2023-05-25T18:42:54.598Z,16.90
2023-05-25T18:45:56.314Z,19.00
2023-05-25T18:48:58.104Z,16.80
2023-05-25T18:52:00.915Z,17.80
2023-05-25T18:55:02.520Z,17.20
2023-05-25T18:58:04.158Z,17.00
2023-05-25T19:01:05.800Z,17.00
2023-05-25T19:04:07.443Z,16.40
2023-05-25T19:07:09.151Z,16.70
2023-05-25T19:10:11.176Z,16.50
2023-05-25T19:13:12.869Z,16.80
2023-05-25T19:16:17.495Z,16.60
2023-05-25T19:19:21.144Z,16.50
2023-05-25T19:22:22.763Z,16.40
2023-05-25T19:25:24.612Z,16.30
2023-05-25T19:28:26.502Z,16.10
2023-05-25T19:31:28.140Z,16.40
2023-05-25T19:34:29.756Z,16.30
2023-05-25T19:37:31.376Z,16.60
2023-05-25T19:40:33.405Z,16.90
2023-05-25T19:43:35.017Z,17.20
2023-05-25T19:46:39.011Z,16.40
2023-05-25T19:49:40.911Z,16.30
2023-05-25T19:52:42.512Z,16.20
2023-05-25T19:55:45.954Z,16.00
2023-05-25T19:58:47.639Z,15.80
2023-05-25T20:01:49.361Z,15.80
2023-05-25T20:04:51.074Z,15.40
2023-05-25T20:07:52.899Z,15.70
2023-05-25T20:10:55.596Z,17.70
2023-05-25T20:13:57.304Z,15.30
2023-05-25T20:16:59.108Z,17.00
2023-05-25T20:20:05.024Z,15.40
2023-05-25T20:23:06.702Z,15.30
2023-05-25T20:26:08.627Z,15.20
2023-05-25T20:29:10.428Z,15.00
2023-05-25T20:32:12.282Z,15.00
2023-05-25T20:35:14.071Z,17.00
2023-05-25T20:38:15.688Z,15.30
2023-05-25T20:41:17.526Z,15.10
2023-05-25T20:44:19.159Z,16.20
2023-05-25T20:47:21.000Z,15.10
2023-05-25T20:50:22.603Z,15.90
2023-05-25T20:53:24.327Z,15.40
2023-05-25T20:56:27.146Z,15.00
2023-05-25T20:59:31.377Z,14.90
2023-05-25T21:02:33.042Z,15.90
2023-05-25T21:05:36.253Z,14.70
2023-05-25T21:08:37.824Z,14.80
2023-05-25T21:11:39.517Z,14.50
2023-05-25T21:14:41.113Z,14.70
2023-05-25T21:17:42.754Z,14.60
2023-05-25T21:20:44.557Z,15.30
2023-05-25T21:23:46.787Z,14.30
2023-05-25T21:26:48.435Z,13.90
2023-05-25T21:29:50.153Z,15.00
2023-05-25T21:32:51.953Z,16.10
2023-05-25T21:35:53.540Z,16.80
2023-05-25T21:38:55.472Z,14.20
2023-05-25T21:41:57.056Z,14.00
2023-05-25T21:44:58.794Z,14.10
2023-05-25T21:48:00.649Z,14.20
2023-05-25T21:51:02.365Z,13.80
2023-05-25T21:54:04.109Z,13.90
2023-05-25T21:57:05.853Z,13.90
2023-05-25T22:00:10.020Z,13.90
2023-05-25T22:03:11.954Z,13.90
2023-05-25T22:06:13.691Z,13.80
2023-05-25T22:09:15.546Z,13.80
2023-05-25T22:12:17.192Z,14.30
2023-05-25T22:15:18.827Z,13.60
2023-05-25T22:18:20.539Z,13.60
2023-05-25T22:21:22.184Z,13.80
2023-05-25T22:24:23.806Z,13.60
2023-05-25T22:27:26.171Z,13.30
2023-05-25T22:30:27.790Z,13.30
2023-05-25T22:33:29.533Z,13.10
2023-05-25T22:36:31.354Z,12.70
2023-05-25T22:39:32.956Z,14.40
2023-05-25T22:42:34.729Z,12.80
2023-05-25T22:45:36.371Z,13.20
2023-05-25T22:48:37.973Z,12.90
2023-05-25T22:51:39.596Z,13.00
2023-05-25T22:54:41.522Z,13.10
2023-05-25T22:57:43.263Z,12.90
2023-05-25T23:00:44.873Z,12.80
2023-05-25T23:03:46.546Z,12.90
2023-05-25T23:06:48.338Z,12.80
2023-05-25T23:09:49.941Z,12.80
2023-05-25T23:12:51.532Z,12.70
2023-05-25T23:15:55.250Z,12.40
2023-05-25T23:18:57.152Z,12.70
2023-05-25T23:21:58.803Z,12.70
2023-05-25T23:25:00.560Z,12.50
2023-05-25T23:28:02.275Z,14.60
2023-05-25T23:31:04.000Z,13.80
2023-05-25T23:34:06.609Z,12.50
2023-05-25T23:37:08.308Z,12.30
2023-05-25T23:40:10.962Z,11.80
2023-05-25T23:43:13.079Z,12.20
2023-05-25T23:46:16.282Z,12.40
2023-05-25T23:49:17.909Z,12.10
2023-05-25T23:52:19.583Z,12.20
2023-05-25T23:55:21.529Z,13.80
2023-05-25T23:58:23.485Z,11.90
